createdAt,value
2023-05-15T00:01:38.226Z,7.60
2023-05-15T00:04:04.841Z,7.47
2023-05-15T00:06:31.386Z,8.83
2023-05-15T00:08:57.840Z,9.83
2023-05-15T00:11:27.757Z,10.43
2023-05-15T00:13:54.565Z,13.47
2023-05-15T00:16:21.078Z,10.67
2023-05-15T00:18:47.691Z,10.10
2023-05-15T00:21:14.295Z,12.43
2023-05-15T00:23:40.735Z,10.80
2023-05-15T00:26:07.167Z,9.73
2023-05-15T00:28:33.707Z,10.50
2023-05-15T00:31:00.323Z,10.40
2023-05-15T00:33:26.759Z,8.83
2023-05-15T00:35:53.232Z,11.33
2023-05-15T00:38:19.640Z,8.43
2023-05-15T00:40:46.567Z,8.37
2023-05-15T00:43:15.253Z,6.17
2023-05-15T00:45:42.305Z,7.20
2023-05-15T00:48:10.084Z,7.47
2023-05-15T00:50:37.089Z,9.20
2023-05-15T00:53:03.730Z,5.80
2023-05-15T00:55:31.873Z,5.50
2023-05-15T00:57:59.667Z,5.30
2023-05-15T01:00:26.363Z,5.53
2023-05-15T01:02:54.393Z,4.87
2023-05-15T01:05:20.961Z,5.37
2023-05-15T01:08:05.918Z,5.33
2023-05-15T01:10:34.908Z,5.17
2023-05-15T01:13:02.469Z,5.53
2023-05-15T01:15:28.976Z,6.13
2023-05-15T01:17:55.578Z,7.77
2023-05-15T01:20:23.183Z,8.03
2023-05-15T01:23:20.397Z,5.30
2023-05-15T01:26:16.565Z,5.63
2023-05-15T01:28:48.554Z,5.47
2023-05-15T01:31:22.158Z,6.23
2023-05-15T01:33:54.714Z,8.80
2023-05-15T01:36:37.689Z,5.50
2023-05-15T01:39:05.522Z,6.50
2023-05-15T01:41:37.010Z,6.00
2023-05-15T01:44:20.157Z,6.97
2023-05-15T01:46:51.166Z,5.97
2023-05-15T01:49:19.662Z,7.13
2023-05-15T01:51:50.835Z,7.23
2023-05-15T01:54:19.581Z,7.70
2023-05-15T01:56:46.237Z,8.90
2023-05-15T01:59:14.496Z,8.50
2023-05-15T02:01:42.379Z,8.13
2023-05-15T02:04:09.703Z,7.53
2023-05-15T02:06:36.833Z,10.93
2023-05-15T02:09:04.093Z,11.27
2023-05-15T02:11:30.733Z,10.80
2023-05-15T02:13:59.007Z,10.23
2023-05-15T02:16:25.766Z,8.93
2023-05-15T02:18:52.667Z,11.23
2023-05-15T02:21:19.250Z,10.57
2023-05-15T02:23:46.349Z,13.17
2023-05-15T02:26:28.071Z,10.43
2023-05-15T02:29:20.152Z,12.87
2023-05-15T02:32:08.215Z,12.20
2023-05-15T02:34:58.861Z,12.23
2023-05-15T02:37:31.074Z,11.63
2023-05-15T02:39:59.796Z,12.40
2023-05-15T02:42:28.086Z,10.67
2023-05-15T02:44:55.278Z,13.33
2023-05-15T02:47:23.696Z,11.47
2023-05-15T02:49:50.521Z,14.53
2023-05-15T02:52:17.794Z,13.83
2023-05-15T02:54:44.307Z,14.97
2023-05-15T02:57:10.730Z,14.20
2023-05-15T02:59:37.526Z,15.73
2023-05-15T03:02:03.968Z,15.23
2023-05-15T03:04:30.389Z,18.17
2023-05-15T03:06:56.912Z,18.90
2023-05-15T03:09:23.338Z,20.17
2023-05-15T03:11:49.809Z,18.47
2023-05-15T03:14:16.257Z,19.00
2023-05-15T03:16:42.808Z,19.03
2023-05-15T03:19:09.350Z,19.07
2023-05-15T03:21:35.907Z,19.93
2023-05-15T03:24:02.389Z,14.37
2023-05-15T03:26:28.835Z,13.03
2023-05-15T03:28:55.271Z,11.20
2023-05-15T03:31:21.760Z,12.20
2023-05-15T03:33:51.418Z,12.73
2023-05-15T03:36:17.990Z,10.53
2023-05-15T03:38:44.465Z,9.77
2023-05-15T03:41:11.090Z,8.50
2023-05-15T03:43:37.596Z,8.83
2023-05-15T03:46:04.214Z,9.07
2023-05-15T03:48:31.722Z,9.10
2023-05-15T03:50:58.212Z,10.00
2023-05-15T03:53:24.779Z,12.27
2023-05-15T03:55:52.262Z,13.10
2023-05-15T03:58:18.764Z,9.80
2023-05-15T04:00:45.214Z,8.03
2023-05-15T04:03:11.785Z,9.47
2023-05-15T04:05:38.354Z,8.20
2023-05-15T04:08:05.227Z,9.70
2023-05-15T04:10:32.714Z,11.03
2023-05-15T04:12:59.205Z,8.00
2023-05-15T04:15:27.321Z,12.23
2023-05-15T04:17:54.373Z,11.13
2023-05-15T04:20:22.872Z,13.07
2023-05-15T04:22:49.463Z,11.90
2023-05-15T04:25:16.486Z,12.27
2023-05-15T04:27:44.350Z,11.60
2023-05-15T04:30:11.811Z,11.33
2023-05-15T04:32:39.659Z,12.17
2023-05-15T04:35:11.961Z,9.10
2023-05-15T04:37:39.820Z,9.97
2023-05-15T04:40:08.157Z,9.87
2023-05-15T04:42:36.800Z,9.87
2023-05-15T04:45:05.404Z,12.43
2023-05-15T04:47:32.436Z,9.10
2023-05-15T04:49:58.932Z,9.90
2023-05-15T04:52:25.973Z,9.57
2023-05-15T04:54:53.326Z,9.57
2023-05-15T04:57:21.497Z,9.63
2023-05-15T04:59:47.999Z,10.27
2023-05-15T05:02:14.446Z,10.80
2023-05-15T05:04:45.681Z,12.07
2023-05-15T05:07:12.151Z,11.20
2023-05-15T05:09:40.110Z,12.40
2023-05-15T05:12:07.985Z,12.50
2023-05-15T05:14:34.479Z,11.73
2023-05-15T05:17:01.024Z,11.47
2023-05-15T05:19:28.309Z,10.90
2023-05-15T05:21:55.594Z,11.40
2023-05-15T05:24:22.109Z,13.17
2023-05-15T05:26:48.613Z,11.47
2023-05-15T05:29:15.031Z,14.47
2023-05-15T05:31:41.585Z,13.93
2023-05-15T05:34:09.216Z,13.17
2023-05-15T05:36:36.999Z,13.43
2023-05-15T05:39:04.726Z,13.27
2023-05-15T05:41:31.229Z,16.47
2023-05-15T05:43:57.868Z,15.73
2023-05-15T05:46:24.557Z,10.00
2023-05-15T05:48:51.068Z,12.80
2023-05-15T05:51:17.546Z,13.93
2023-05-15T05:53:44.026Z,9.50
2023-05-15T05:56:10.717Z,15.37
2023-05-15T05:58:37.237Z,13.27
2023-05-15T06:01:03.887Z,14.43
2023-05-15T06:03:31.207Z,13.50
2023-05-15T06:05:57.774Z,14.27
2023-05-15T06:08:24.354Z,16.23
2023-05-15T06:10:51.094Z,17.63
2023-05-15T06:13:17.559Z,14.90
2023-05-15T06:15:45.854Z,19.67
2023-05-15T06:18:12.385Z,16.03
2023-05-15T06:20:39.027Z,15.27
2023-05-15T06:23:05.538Z,11.63
2023-05-15T06:25:32.804Z,15.30
2023-05-15T06:27:59.214Z,16.17
2023-05-15T06:30:26.001Z,17.77
2023-05-15T06:32:53.915Z,17.63
2023-05-15T06:35:20.813Z,17.53
2023-05-15T06:37:50.299Z,17.50
2023-05-15T06:40:16.911Z,16.73
2023-05-15T06:42:43.344Z,12.87
2023-05-15T06:45:10.500Z,13.70
2023-05-15T06:47:36.960Z,17.53
2023-05-15T06:50:04.848Z,12.70
2023-05-15T06:52:31.262Z,19.17
2023-05-15T06:54:57.963Z,19.53
2023-05-15T06:57:24.352Z,12.77
2023-05-15T06:59:50.850Z,18.67
2023-05-15T07:02:17.484Z,20.67
2023-05-15T07:04:44.116Z,17.30
2023-05-15T07:07:10.643Z,19.90
2023-05-15T07:09:37.138Z,13.23
2023-05-15T07:12:04.091Z,18.30
2023-05-15T07:14:30.555Z,16.63
2023-05-15T07:16:57.126Z,17.57
2023-05-15T07:19:23.723Z,23.53
2023-05-15T07:21:50.289Z,21.17
2023-05-15T07:24:16.701Z,23.13
2023-05-15T07:26:56.973Z,17.73
2023-05-15T07:29:24.993Z,21.83
2023-05-15T07:31:51.460Z,17.77
2023-05-15T07:34:17.978Z,17.77
2023-05-15T07:36:44.536Z,19.70
2023-05-15T07:39:11.062Z,21.10
2023-05-15T07:41:37.488Z,18.33
2023-05-15T07:44:04.130Z,14.87
2023-05-15T07:46:30.708Z,18.73
2023-05-15T07:48:57.296Z,21.87
2023-05-15T07:51:23.867Z,16.37
2023-05-15T07:53:50.654Z,21.97
2023-05-15T07:56:17.369Z,15.73
2023-05-15T07:58:43.877Z,20.43
2023-05-15T08:01:10.448Z,22.10
2023-05-15T08:03:36.922Z,19.20
2023-05-15T08:06:03.718Z,21.30
2023-05-15T08:08:30.857Z,23.73
2023-05-15T08:10:57.256Z,20.67
2023-05-15T08:13:23.914Z,17.47
2023-05-15T08:15:50.494Z,20.90
2023-05-15T08:18:17.072Z,22.30
2023-05-15T08:20:43.621Z,22.63
2023-05-15T08:23:10.051Z,23.27
2023-05-15T08:25:36.463Z,22.43
2023-05-15T08:28:04.696Z,18.73
2023-05-15T08:30:31.291Z,16.93
2023-05-15T08:32:57.852Z,21.83
2023-05-15T08:35:24.651Z,21.40
2023-05-15T08:37:51.410Z,22.73
2023-05-15T08:40:21.354Z,17.50
2023-05-15T08:42:55.668Z,20.33
2023-05-15T08:45:22.794Z,24.83
2023-05-15T08:47:49.457Z,23.43
2023-05-15T08:50:17.234Z,23.03
2023-05-15T08:52:47.166Z,23.70
2023-05-15T08:55:17.590Z,23.77
2023-05-15T08:57:45.153Z,22.07
2023-05-15T09:00:14.827Z,22.27
2023-05-15T09:02:42.823Z,20.03
2023-05-15T09:05:10.096Z,19.20
2023-05-15T09:07:39.025Z,19.80
2023-05-15T09:10:06.268Z,22.27
2023-05-15T09:12:34.459Z,24.07
2023-05-15T09:15:15.997Z,19.63
2023-05-15T09:17:43.305Z,19.33
2023-05-15T09:20:32.736Z,20.97
2023-05-15T09:23:01.654Z,21.20
2023-05-15T09:25:35.255Z,20.60
2023-05-15T09:28:01.847Z,17.50
2023-05-15T09:30:28.448Z,17.60
2023-05-15T09:32:56.429Z,17.80
2023-05-15T09:35:33.570Z,21.43
2023-05-15T09:38:01.799Z,20.50
2023-05-15T09:40:29.617Z,17.23
2023-05-15T09:42:56.395Z,16.43
2023-05-15T09:45:25.698Z,19.60
2023-05-15T09:47:53.035Z,19.50
2023-05-15T09:50:21.512Z,17.03
2023-05-15T09:52:50.199Z,17.67
2023-05-15T09:55:17.257Z,17.20
2023-05-15T09:57:43.752Z,18.23
2023-05-15T10:00:19.444Z,16.77
2023-05-15T10:02:46.268Z,16.90
2023-05-15T10:05:13.074Z,18.67
2023-05-15T10:07:39.584Z,13.73
2023-05-15T10:10:06.521Z,15.67
2023-05-15T10:12:36.591Z,11.67
2023-05-15T10:15:03.468Z,9.87
2023-05-15T10:17:32.090Z,14.83
2023-05-15T10:20:00.726Z,9.63
2023-05-15T10:22:30.853Z,11.17
2023-05-15T10:25:03.949Z,10.10
2023-05-15T10:27:31.145Z,7.23
2023-05-15T10:29:59.052Z,8.70
2023-05-15T10:32:26.231Z,8.83
2023-05-15T10:34:54.726Z,8.87
2023-05-15T10:37:22.854Z,9.00
2023-05-15T10:39:50.925Z,5.17
2023-05-15T10:42:17.940Z,5.73
2023-05-15T10:44:44.498Z,7.80
2023-05-15T10:47:11.106Z,6.83
2023-05-15T10:49:37.676Z,10.23
2023-05-15T10:52:04.613Z,6.60
2023-05-15T10:54:31.233Z,7.50
2023-05-15T10:56:58.262Z,7.17
2023-05-15T10:59:32.382Z,7.03
2023-05-15T11:02:19.132Z,10.00
2023-05-15T11:04:46.081Z,8.33
2023-05-15T11:07:14.951Z,8.40
2023-05-15T11:09:41.643Z,7.43
2023-05-15T11:12:14.525Z,13.70
2023-05-15T11:14:43.013Z,6.53
2023-05-15T11:17:11.721Z,10.63
2023-05-15T11:19:54.440Z,9.07
2023-05-15T11:22:25.664Z,7.97
2023-05-15T11:24:55.149Z,8.30
2023-05-15T11:27:44.403Z,8.13
2023-05-15T11:30:22.854Z,5.67
2023-05-15T11:33:04.669Z,4.73
2023-05-15T11:35:37.280Z,4.70
2023-05-15T11:38:09.414Z,4.23
2023-05-15T11:40:48.009Z,4.93
2023-05-15T11:43:21.690Z,3.60
2023-05-15T11:45:53.082Z,3.23
2023-05-15T11:48:20.719Z,4.30
2023-05-15T11:50:47.470Z,4.83
2023-05-15T11:53:14.931Z,4.47
2023-05-15T11:55:43.876Z,7.70
2023-05-15T11:58:18.101Z,5.20
2023-05-15T12:00:47.305Z,8.83
2023-05-15T12:03:20.508Z,3.83
2023-05-15T12:05:58.308Z,6.47
2023-05-15T12:08:26.896Z,5.07
2023-05-15T12:10:53.409Z,4.73
2023-05-15T12:13:19.848Z,4.53
2023-05-15T12:15:47.223Z,6.13
2023-05-15T12:18:14.117Z,4.73
2023-05-15T12:20:47.564Z,7.27
2023-05-15T12:23:17.881Z,4.80
2023-05-15T12:25:46.808Z,6.17
2023-05-15T12:28:14.499Z,3.63
2023-05-15T12:30:42.906Z,6.27
2023-05-15T12:33:10.828Z,9.10
2023-05-15T12:35:42.180Z,4.23
2023-05-15T12:38:09.061Z,4.00
2023-05-15T12:40:37.198Z,8.93
2023-05-15T12:43:07.879Z,6.67
2023-05-15T12:45:37.337Z,5.13
2023-05-15T12:48:04.714Z,2.13
2023-05-15T12:50:35.848Z,1.80
2023-05-15T12:53:04.678Z,4.53
2023-05-15T12:55:36.447Z,3.47
2023-05-15T12:58:07.920Z,3.20
2023-05-15T13:00:36.313Z,3.47
2023-05-15T13:03:05.053Z,3.07
2023-05-15T13:05:34.242Z,4.27
2023-05-15T13:08:02.697Z,2.93
2023-05-15T13:10:32.688Z,3.13
2023-05-15T13:12:59.570Z,2.10
2023-05-15T13:15:30.077Z,2.80
2023-05-15T13:18:01.011Z,3.20
2023-05-15T13:20:37.390Z,1.87
2023-05-15T13:23:04.211Z,3.67
2023-05-15T13:25:32.227Z,2.67
2023-05-15T13:28:01.402Z,5.53
2023-05-15T13:30:28.771Z,3.57
2023-05-15T13:32:56.041Z,1.93
2023-05-15T13:35:22.832Z,2.70
2023-05-15T13:37:49.686Z,3.40
2023-05-15T13:40:16.551Z,4.07
2023-05-15T13:42:44.644Z,4.50
2023-05-15T13:45:13.622Z,1.87
2023-05-15T13:47:41.581Z,3.70
2023-05-15T13:50:13.191Z,2.47
2023-05-15T13:52:42.600Z,3.47
2023-05-15T13:55:10.152Z,3.57
2023-05-15T13:57:38.121Z,3.93
2023-05-15T14:00:13.509Z,1.67
2023-05-15T14:02:41.189Z,3.50
2023-05-15T14:05:08.233Z,3.27
2023-05-15T14:07:34.973Z,5.30
2023-05-15T14:10:01.402Z,2.47
2023-05-15T14:12:27.884Z,3.73
2023-05-15T14:14:54.497Z,4.93
2023-05-15T14:17:22.411Z,4.60
2023-05-15T14:19:49.264Z,3.13
2023-05-15T14:22:15.773Z,6.20
2023-05-15T14:24:42.506Z,3.47
2023-05-15T14:27:09.271Z,5.30
2023-05-15T14:29:35.792Z,4.73
2023-05-15T14:32:02.362Z,7.83
2023-05-15T14:34:29.991Z,4.63
2023-05-15T14:36:56.480Z,5.97
2023-05-15T14:39:22.964Z,5.37
2023-05-15T14:41:49.738Z,3.90
2023-05-15T14:44:17.200Z,4.50
2023-05-15T14:46:43.737Z,4.07
2023-05-15T14:49:10.437Z,4.70
2023-05-15T14:51:36.876Z,5.13
2023-05-15T14:54:05.016Z,3.60
2023-05-15T14:56:31.789Z,6.77
2023-05-15T14:58:58.236Z,6.27
2023-05-15T15:01:24.704Z,5.57
2023-05-15T15:03:51.313Z,2.00
2023-05-15T15:06:17.921Z,4.73
2023-05-15T15:08:44.356Z,4.97
2023-05-15T15:11:10.915Z,3.87
2023-05-15T15:13:37.424Z,7.37
2023-05-15T15:16:04.774Z,7.23
2023-05-15T15:18:31.361Z,5.30
2023-05-15T15:20:57.854Z,8.57
2023-05-15T15:23:24.359Z,6.10
2023-05-15T15:25:50.774Z,6.07
2023-05-15T15:28:17.274Z,8.50
2023-05-15T15:30:43.811Z,5.43
2023-05-15T15:33:10.351Z,4.63
2023-05-15T15:35:36.814Z,3.87
2023-05-15T15:38:03.657Z,5.17
2023-05-15T15:40:30.225Z,6.50
2023-05-15T15:42:56.809Z,5.60
2023-05-15T15:45:23.263Z,8.37
2023-05-15T15:47:49.930Z,5.57
2023-05-15T15:50:16.630Z,4.87
2023-05-15T15:52:43.049Z,3.67
2023-05-15T15:55:09.871Z,4.73
2023-05-15T15:57:37.274Z,5.27
2023-05-15T16:00:05.308Z,8.63
2023-05-15T16:02:31.798Z,6.80
2023-05-15T16:04:58.253Z,4.97
2023-05-15T16:07:24.873Z,6.43
2023-05-15T16:10:00.298Z,9.17
2023-05-15T16:12:37.429Z,8.70
2023-05-15T16:15:17.452Z,8.63
2023-05-15T16:17:47.117Z,10.80
2023-05-15T16:20:13.597Z,7.27
2023-05-15T16:22:41.711Z,9.07
2023-05-15T16:25:08.666Z,7.30
2023-05-15T16:27:35.064Z,6.50
2023-05-15T16:30:01.689Z,6.47
2023-05-15T16:32:28.152Z,6.33
2023-05-15T16:34:54.698Z,5.67
2023-05-15T16:37:21.204Z,5.40
2023-05-15T16:39:47.684Z,5.50
2023-05-15T16:42:14.227Z,4.77
2023-05-15T16:44:40.627Z,7.40
2023-05-15T16:47:07.429Z,4.57
2023-05-15T16:49:33.969Z,7.63
2023-05-15T16:52:00.488Z,4.40
2023-05-15T16:54:27.007Z,7.97
2023-05-15T16:56:53.542Z,5.33
2023-05-15T16:59:20.070Z,4.03
2023-05-15T17:01:46.571Z,4.20
2023-05-15T17:04:13.026Z,8.17
2023-05-15T17:06:39.487Z,7.93
2023-05-15T17:09:06.052Z,5.50
2023-05-15T17:11:32.572Z,9.03
2023-05-15T17:13:59.150Z,8.13
2023-05-15T17:16:25.660Z,9.70
2023-05-15T17:18:52.328Z,4.70
2023-05-15T17:21:18.748Z,7.33
2023-05-15T17:23:48.214Z,5.37
2023-05-15T17:26:14.653Z,3.30
2023-05-15T17:28:41.107Z,6.30
2023-05-15T17:31:10.047Z,5.83
2023-05-15T17:33:36.759Z,8.30
2023-05-15T17:36:03.460Z,5.43
2023-05-15T17:38:29.945Z,8.13
2023-05-15T17:40:56.432Z,2.93
2023-05-15T17:43:22.968Z,5.23
2023-05-15T17:45:49.429Z,6.87
2023-05-15T17:48:16.179Z,5.63
2023-05-15T17:50:42.685Z,5.00
2023-05-15T17:53:09.202Z,5.93
2023-05-15T17:55:35.709Z,9.07
2023-05-15T17:58:02.332Z,8.13
2023-05-15T18:00:28.792Z,5.53
2023-05-15T18:02:56.138Z,4.87
2023-05-15T18:05:23.489Z,7.83
2023-05-15T18:07:50.124Z,6.43
2023-05-15T18:10:16.744Z,5.07
2023-05-15T18:12:43.323Z,4.17
2023-05-15T18:15:10.401Z,3.83
2023-05-15T18:17:36.955Z,7.87
2023-05-15T18:20:05.689Z,5.07
2023-05-15T18:22:33.236Z,8.53
2023-05-15T18:25:00.835Z,8.63
2023-05-15T18:27:27.434Z,3.00
2023-05-15T18:29:53.977Z,11.90
2023-05-15T18:32:20.493Z,7.13
2023-05-15T18:34:47.334Z,5.80
2023-05-15T18:37:13.909Z,6.00
2023-05-15T18:39:41.961Z,8.67
2023-05-15T18:42:08.586Z,9.57
2023-05-15T18:44:35.970Z,6.63
2023-05-15T18:47:03.609Z,8.43
2023-05-15T18:49:33.865Z,7.87
2023-05-15T18:52:00.348Z,7.87
2023-05-15T18:54:26.947Z,5.33
2023-05-15T18:56:53.438Z,6.70
2023-05-15T18:59:20.060Z,6.27
2023-05-15T19:01:48.749Z,4.20
2023-05-15T19:04:15.290Z,5.70
2023-05-15T19:06:43.510Z,12.10
2023-05-15T19:09:10.494Z,6.87
2023-05-15T19:11:37.072Z,7.50
2023-05-15T19:14:03.512Z,3.83
2023-05-15T19:16:30.047Z,7.27
2023-05-15T19:18:56.538Z,7.07
2023-05-15T19:21:23.134Z,13.77
2023-05-15T19:23:51.186Z,4.77
2023-05-15T19:26:18.817Z,4.50
2023-05-15T19:28:45.377Z,5.90
2023-05-15T19:31:20.219Z,9.23
2023-05-15T19:33:57.108Z,2.03
2023-05-15T19:36:23.974Z,7.07
2023-05-15T19:38:51.592Z,6.40
2023-05-15T19:41:18.120Z,7.83
2023-05-15T19:43:46.501Z,3.30
2023-05-15T19:46:13.630Z,4.50
2023-05-15T19:48:40.437Z,6.37
2023-05-15T19:51:07.240Z,5.97
2023-05-15T19:53:34.223Z,6.70
2023-05-15T19:56:00.842Z,7.03
2023-05-15T19:58:27.621Z,6.80
2023-05-15T20:00:54.736Z,4.93
2023-05-15T20:03:22.161Z,4.13
2023-05-15T20:05:49.164Z,8.37
2023-05-15T20:08:17.198Z,6.83
2023-05-15T20:10:51.144Z,5.20
2023-05-15T20:13:17.608Z,7.00
2023-05-15T20:15:44.546Z,6.43
2023-05-15T20:18:11.295Z,6.67
2023-05-15T20:20:38.145Z,7.43
2023-05-15T20:23:04.673Z,5.87
2023-05-15T20:25:31.445Z,4.80
2023-05-15T20:27:58.768Z,5.80
2023-05-15T20:30:27.133Z,6.60
2023-05-15T20:32:54.113Z,9.60
2023-05-15T20:35:20.854Z,8.27
2023-05-15T20:37:47.560Z,4.00
2023-05-15T20:40:15.834Z,5.20
2023-05-15T20:42:42.945Z,2.30
2023-05-15T20:45:10.140Z,5.37
2023-05-15T20:47:36.774Z,2.60
2023-05-15T20:50:03.756Z,4.63
2023-05-15T20:52:30.636Z,2.73
2023-05-15T20:54:57.132Z,6.53
2023-05-15T20:57:23.760Z,8.90
2023-05-15T20:59:50.308Z,3.07
2023-05-15T21:02:16.911Z,9.83
2023-05-15T21:04:44.042Z,3.80
2023-05-15T21:07:10.578Z,4.77
2023-05-15T21:09:37.006Z,5.23
2023-05-15T21:12:04.201Z,9.57
2023-05-15T21:14:30.850Z,5.53
2023-05-15T21:16:57.762Z,2.90
2023-05-15T21:19:24.440Z,4.00
2023-05-15T21:21:51.159Z,4.30
2023-05-15T21:24:17.839Z,7.50
2023-05-15T21:26:44.301Z,3.37
2023-05-15T21:29:11.178Z,5.30
2023-05-15T21:31:37.716Z,7.47
2023-05-15T21:34:04.327Z,5.03
2023-05-15T21:36:31.311Z,2.80
2023-05-15T21:38:57.800Z,2.70
2023-05-15T21:41:26.057Z,9.93
2023-05-15T21:43:52.701Z,4.33
2023-05-15T21:46:19.441Z,4.13
2023-05-15T21:48:46.595Z,7.07
2023-05-15T21:51:13.117Z,4.37
2023-05-15T21:53:39.619Z,4.10
2023-05-15T21:56:06.601Z,4.47
2023-05-15T21:58:33.124Z,6.77
2023-05-15T22:00:59.603Z,6.97
2023-05-15T22:03:26.350Z,2.90
2023-05-15T22:05:53.205Z,2.53
2023-05-15T22:08:20.346Z,4.57
2023-05-15T22:10:47.497Z,3.37
2023-05-15T22:13:14.047Z,4.57
2023-05-15T22:15:40.483Z,6.20
2023-05-15T22:18:08.158Z,4.30
2023-05-15T22:20:34.740Z,3.53
2023-05-15T22:23:01.167Z,7.70
2023-05-15T22:25:27.730Z,3.00
2023-05-15T22:27:54.357Z,4.53
2023-05-15T22:30:21.121Z,4.30
2023-05-15T22:32:48.923Z,6.33
2023-05-15T22:35:15.811Z,4.23
2023-05-15T22:37:42.417Z,9.43
2023-05-15T22:40:10.530Z,5.70
2023-05-15T22:42:37.286Z,7.73
2023-05-15T22:45:05.935Z,2.70
2023-05-15T22:47:33.100Z,11.07
2023-05-15T22:49:59.668Z,7.60
2023-05-15T22:52:26.453Z,6.73
2023-05-15T22:54:52.919Z,2.97
2023-05-15T22:57:19.495Z,3.87
2023-05-15T22:59:46.128Z,8.80
2023-05-15T23:02:13.615Z,4.57
2023-05-15T23:04:40.146Z,3.17
2023-05-15T23:07:06.854Z,6.30
2023-05-15T23:09:33.438Z,3.83
2023-05-15T23:12:00.772Z,4.10
2023-05-15T23:14:27.236Z,2.67
2023-05-15T23:16:53.842Z,2.23
2023-05-15T23:19:20.446Z,4.33
2023-05-15T23:21:47.236Z,3.93
2023-05-15T23:24:13.689Z,3.20
2023-05-15T23:26:40.376Z,4.13
2023-05-15T23:29:06.811Z,5.27
2023-05-15T23:31:33.682Z,5.60
2023-05-15T23:34:00.566Z,8.20
2023-05-15T23:36:27.128Z,3.40
2023-05-15T23:38:53.638Z,7.20
2023-05-15T23:41:21.984Z,8.10
2023-05-15T23:43:50.463Z,3.97
2023-05-15T23:46:17.681Z,7.43
2023-05-15T23:48:44.336Z,5.73
2023-05-15T23:51:10.975Z,1.67
2023-05-15T23:53:37.561Z,4.20
2023-05-15T23:56:04.359Z,1.67
2023-05-15T23:58:31.212Z,7.93
